sensor_id;sensor_type;location;lat;lon;timestamp;temperature;humidity
75925;DHT22;64604;44.752;37.674;2022-11-20T00:00:44;13.11;100.35
75925;DHT22;64604;44.752;37.674;2022-11-20T00:01:45;13.11;100.35
75925;DHT22;64604;44.752;37.674;2022-11-20T00:02:47;13.16;100.42
75925;DHT22;64604;44.752;37.674;2022-11-20T00:03:50;13.17;100.31
75925;DHT22;64604;44.752;37.674;2022-11-20T00:04:52;13.20;100.26
75925;DHT22;64604;44.752;37.674;2022-11-20T00:05:53;13.23;100.18
75925;DHT22;64604;44.752;37.674;2022-11-20T00:06:55;13.23;99.97
75925;DHT22;64604;44.752;37.674;2022-11-20T00:07:56;13.26;99.77
75925;DHT22;64604;44.752;37.674;2022-11-20T00:08:59;13.24;99.49
75925;DHT22;64604;44.752;37.674;2022-11-20T00:10:01;13.26;99.58
75925;DHT22;64604;44.752;37.674;2022-11-20T00:11:14;13.25;99.37
75925;DHT22;64604;44.752;37.674;2022-11-20T00:12:16;13.27;99.67
75925;DHT22;64604;44.752;37.674;2022-11-20T00:13:18;13.29;99.73
75925;DHT22;64604;44.752;37.674;2022-11-20T00:14:19;13.30;99.82
75925;DHT22;64604;44.752;37.674;2022-11-20T00:15:21;13.32;99.74
75925;DHT22;64604;44.752;37.674;2022-11-20T00:16:24;13.35;99.76
75925;DHT22;64604;44.752;37.674;2022-11-20T00:17:26;13.37;99.64
75925;DHT22;64604;44.752;37.674;2022-11-20T00:18:28;13.36;99.64
75925;DHT22;64604;44.752;37.674;2022-11-20T00:19:29;13.36;99.59
75925;DHT22;64604;44.752;37.674;2022-11-20T00:20:31;13.39;99.67
75925;DHT22;64604;44.752;37.674;2022-11-20T00:21:32;13.44;99.65
75925;DHT22;64604;44.752;37.674;2022-11-20T00:22:34;13.45;99.54
75925;DHT22;64604;44.752;37.674;2022-11-20T00:23:36;13.48;99.45
75925;DHT22;64604;44.752;37.674;2022-11-20T00:24:38;13.51;99.44
75925;DHT22;64604;44.752;37.674;2022-11-20T00:25:39;13.53;99.37
75925;DHT22;64604;44.752;37.674;2022-11-20T00:26:41;13.55;99.17
75925;DHT22;64604;44.752;37.674;2022-11-20T00:27:43;13.56;99.15
75925;DHT22;64604;44.752;37.674;2022-11-20T00:28:50;13.59;99.02
75925;DHT22;64604;44.752;37.674;2022-11-20T00:29:52;13.61;99.09
75925;DHT22;64604;44.752;37.674;2022-11-20T00:31:00;13.61;98.97
75925;DHT22;64604;44.752;37.674;2022-11-20T00:32:02;13.64;99.22
75925;DHT22;64604;44.752;37.674;2022-11-20T00:33:04;13.65;99.26
75925;DHT22;64604;44.752;37.674;2022-11-20T00:34:05;13.68;99.29
75925;DHT22;64604;44.752;37.674;2022-11-20T00:35:07;13.68;99.42
75925;DHT22;64604;44.752;37.674;2022-11-20T00:36:11;13.69;99.34
75925;DHT22;64604;44.752;37.674;2022-11-20T00:37:13;13.69;99.38
75925;DHT22;64604;44.752;37.674;2022-11-20T00:38:15;13.70;99.45
75925;DHT22;64604;44.752;37.674;2022-11-20T00:39:16;13.71;99.52
75925;DHT22;64604;44.752;37.674;2022-11-20T00:40:18;13.70;99.45
75925;DHT22;64604;44.752;37.674;2022-11-20T00:41:20;13.73;99.48
75925;DHT22;64604;44.752;37.674;2022-11-20T00:42:21;13.73;99.44
75925;DHT22;64604;44.752;37.674;2022-11-20T00:43:23;13.71;99.38
75925;DHT22;64604;44.752;37.674;2022-11-20T00:44:25;13.74;99.43
75925;DHT22;64604;44.752;37.674;2022-11-20T00:45:27;13.75;99.55
75925;DHT22;64604;44.752;37.674;2022-11-20T00:46:29;13.76;99.56
75925;DHT22;64604;44.752;37.674;2022-11-20T00:47:30;13.78;99.55
75925;DHT22;64604;44.752;37.674;2022-11-20T00:48:32;13.79;99.48
75925;DHT22;64604;44.752;37.674;2022-11-20T00:49:34;13.82;99.55
75925;DHT22;64604;44.752;37.674;2022-11-20T00:50:35;13.83;99.51
75925;DHT22;64604;44.752;37.674;2022-11-20T00:51:37;13.85;99.58
75925;DHT22;64604;44.752;37.674;2022-11-20T00:52:39;13.89;99.50
75925;DHT22;64604;44.752;37.674;2022-11-20T00:53:40;13.89;99.45
75925;DHT22;64604;44.752;37.674;2022-11-20T00:54:42;13.92;99.51
75925;DHT22;64604;44.752;37.674;2022-11-20T00:55:53;13.93;99.43
75925;DHT22;64604;44.752;37.674;2022-11-20T00:56:55;13.94;99.40
75925;DHT22;64604;44.752;37.674;2022-11-20T00:57:56;13.93;99.23
75925;DHT22;64604;44.752;37.674;2022-11-20T00:58:59;13.91;99.40
75925;DHT22;64604;44.752;37.674;2022-11-20T01:00:02;13.89;99.49
75925;DHT22;64604;44.752;37.674;2022-11-20T01:01:09;13.86;99.53
75925;DHT22;64604;44.752;37.674;2022-11-20T01:02:11;13.85;99.75
75925;DHT22;64604;44.752;37.674;2022-11-20T01:03:13;13.84;99.70
75925;DHT22;64604;44.752;37.674;2022-11-20T01:04:14;13.85;99.78
75925;DHT22;64604;44.752;37.674;2022-11-20T01:05:16;13.85;99.73
75925;DHT22;64604;44.752;37.674;2022-11-20T01:06:37;13.82;99.46
75925;DHT22;64604;44.752;37.674;2022-11-20T01:07:39;13.84;99.62
75925;DHT22;64604;44.752;37.674;2022-11-20T01:08:40;13.86;99.51
75925;DHT22;64604;44.752;37.674;2022-11-20T01:09:42;13.88;99.66
75925;DHT22;64604;44.752;37.674;2022-11-20T01:10:43;13.91;99.46
75925;DHT22;64604;44.752;37.674;2022-11-20T01:11:45;13.89;99.23
75925;DHT22;64604;44.752;37.674;2022-11-20T01:12:46;13.90;99.20
75925;DHT22;64604;44.752;37.674;2022-11-20T01:14:13;13.89;98.77
75925;DHT22;64604;44.752;37.674;2022-11-20T01:15:15;13.92;98.29
75925;DHT22;64604;44.752;37.674;2022-11-20T01:16:18;13.94;97.91
75925;DHT22;64604;44.752;37.674;2022-11-20T01:17:20;13.96;97.63
75925;DHT22;64604;44.752;37.674;2022-11-20T01:18:22;13.98;97.37
75925;DHT22;64604;44.752;37.674;2022-11-20T01:19:23;13.98;97.38
75925;DHT22;64604;44.752;37.674;2022-11-20T01:20:25;13.99;97.50
75925;DHT22;64604;44.752;37.674;2022-11-20T01:21:33;13.99;97.36
75925;DHT22;64604;44.752;37.674;2022-11-20T01:22:35;13.98;97.53
75925;DHT22;64604;44.752;37.674;2022-11-20T01:23:38;13.96;97.47
75925;DHT22;64604;44.752;37.674;2022-11-20T01:24:40;13.96;97.64
75925;DHT22;64604;44.752;37.674;2022-11-20T01:25:43;13.95;97.46
75925;DHT22;64604;44.752;37.674;2022-11-20T01:26:46;13.95;97.31
75925;DHT22;64604;44.752;37.674;2022-11-20T01:27:48;13.95;97.22
75925;DHT22;64604;44.752;37.674;2022-11-20T01:28:50;13.97;97.26
75925;DHT22;64604;44.752;37.674;2022-11-20T01:29:52;13.94;97.08
75925;DHT22;64604;44.752;37.674;2022-11-20T01:30:53;13.93;97.05
75925;DHT22;64604;44.752;37.674;2022-11-20T01:31:55;13.93;97.01
75925;DHT22;64604;44.752;37.674;2022-11-20T01:32:57;13.93;97.12
75925;DHT22;64604;44.752;37.674;2022-11-20T01:34:02;13.94;97.05
75925;DHT22;64604;44.752;37.674;2022-11-20T01:35:04;13.92;96.81
75925;DHT22;64604;44.752;37.674;2022-11-20T01:36:06;13.93;97.18
75925;DHT22;64604;44.752;37.674;2022-11-20T01:37:08;13.92;96.98
75925;DHT22;64604;44.752;37.674;2022-11-20T01:38:09;13.92;97.33
75925;DHT22;64604;44.752;37.674;2022-11-20T01:39:19;13.90;97.65
75925;DHT22;64604;44.752;37.674;2022-11-20T01:40:21;13.91;97.87
75925;DHT22;64604;44.752;37.674;2022-11-20T01:41:23;13.88;97.87
75925;DHT22;64604;44.752;37.674;2022-11-20T01:42:53;13.83;98.55
75925;DHT22;64604;44.752;37.674;2022-11-20T01:44:21;13.83;99.44
75925;DHT22;64604;44.752;37.674;2022-11-20T01:47:04;13.79;99.67
75925;DHT22;64604;44.752;37.674;2022-11-20T01:48:08;13.80;99.54
75925;DHT22;64604;44.752;37.674;2022-11-20T01:49:59;13.80;99.22
75925;DHT22;64604;44.752;37.674;2022-11-20T01:51:02;13.75;98.93
75925;DHT22;64604;44.752;37.674;2022-11-20T01:52:09;13.71;98.84
75925;DHT22;64604;44.752;37.674;2022-11-20T01:53:15;13.71;98.94
75925;DHT22;64604;44.752;37.674;2022-11-20T01:54:21;13.73;98.74
75925;DHT22;64604;44.752;37.674;2022-11-20T01:55:28;13.73;98.55
75925;DHT22;64604;44.752;37.674;2022-11-20T01:56:34;13.70;98.43
75925;DHT22;64604;44.752;37.674;2022-11-20T01:57:38;13.73;98.38
75925;DHT22;64604;44.752;37.674;2022-11-20T01:58:45;13.71;98.19
75925;DHT22;64604;44.752;37.674;2022-11-20T01:59:56;13.71;98.22
75925;DHT22;64604;44.752;37.674;2022-11-20T02:00:58;13.71;98.19
75925;DHT22;64604;44.752;37.674;2022-11-20T02:02:00;13.69;98.10
75925;DHT22;64604;44.752;37.674;2022-11-20T02:03:13;13.68;98.00
75925;DHT22;64604;44.752;37.674;2022-11-20T02:04:16;13.68;98.10
75925;DHT22;64604;44.752;37.674;2022-11-20T02:05:35;13.67;98.05
75925;DHT22;64604;44.752;37.674;2022-11-20T02:06:44;13.67;98.03
75925;DHT22;64604;44.752;37.674;2022-11-20T02:07:48;13.67;98.11
75925;DHT22;64604;44.752;37.674;2022-11-20T02:08:51;13.69;98.26
75925;DHT22;64604;44.752;37.674;2022-11-20T02:09:53;13.69;98.61
75925;DHT22;64604;44.752;37.674;2022-11-20T02:10:55;13.70;98.90
75925;DHT22;64604;44.752;37.674;2022-11-20T02:11:58;13.73;99.22
75925;DHT22;64604;44.752;37.674;2022-11-20T02:13:00;13.77;99.32
75925;DHT22;64604;44.752;37.674;2022-11-20T02:14:21;13.79;99.45
75925;DHT22;64604;44.752;37.674;2022-11-20T02:15:23;13.81;99.38
75925;DHT22;64604;44.752;37.674;2022-11-20T02:16:29;13.84;99.41
75925;DHT22;64604;44.752;37.674;2022-11-20T02:17:31;13.83;99.20
75925;DHT22;64604;44.752;37.674;2022-11-20T02:18:33;13.88;99.38
75925;DHT22;64604;44.752;37.674;2022-11-20T02:19:34;13.92;99.40
75925;DHT22;64604;44.752;37.674;2022-11-20T02:20:36;13.93;99.35
75925;DHT22;64604;44.752;37.674;2022-11-20T02:22:02;13.94;99.28
75925;DHT22;64604;44.752;37.674;2022-11-20T02:23:10;13.96;99.28
75925;DHT22;64604;44.752;37.674;2022-11-20T02:24:18;13.99;99.23
75925;DHT22;64604;44.752;37.674;2022-11-20T02:25:21;14.00;99.09
75925;DHT22;64604;44.752;37.674;2022-11-20T02:26:23;14.01;99.03
75925;DHT22;64604;44.752;37.674;2022-11-20T02:27:25;14.01;98.82
75925;DHT22;64604;44.752;37.674;2022-11-20T02:28:28;14.03;98.66
75925;DHT22;64604;44.752;37.674;2022-11-20T02:29:50;14.01;98.37
75925;DHT22;64604;44.752;37.674;2022-11-20T02:30:52;14.01;98.47
75925;DHT22;64604;44.752;37.674;2022-11-20T02:31:55;14.00;98.53
75925;DHT22;64604;44.752;37.674;2022-11-20T02:32:58;14.00;98.68
75925;DHT22;64604;44.752;37.674;2022-11-20T02:33:59;14.00;98.80
75925;DHT22;64604;44.752;37.674;2022-11-20T02:36:21;13.98;98.61
75925;DHT22;64604;44.752;37.674;2022-11-20T02:37:32;13.97;98.77
75925;DHT22;64604;44.752;37.674;2022-11-20T02:38:34;13.98;99.03
75925;DHT22;64604;44.752;37.674;2022-11-20T02:39:36;14.01;99.33
75925;DHT22;64604;44.752;37.674;2022-11-20T02:40:37;14.01;99.26
75925;DHT22;64604;44.752;37.674;2022-11-20T02:41:39;14.03;99.31
75925;DHT22;64604;44.752;37.674;2022-11-20T02:42:41;14.03;99.41
75925;DHT22;64604;44.752;37.674;2022-11-20T02:43:42;14.05;99.47
75925;DHT22;64604;44.752;37.674;2022-11-20T02:44:45;14.08;99.58
75925;DHT22;64604;44.752;37.674;2022-11-20T02:45:46;14.08;99.53
75925;DHT22;64604;44.752;37.674;2022-11-20T02:46:48;14.07;99.40
75925;DHT22;64604;44.752;37.674;2022-11-20T02:47:50;14.08;99.45
75925;DHT22;64604;44.752;37.674;2022-11-20T02:48:51;14.11;99.61
75925;DHT22;64604;44.752;37.674;2022-11-20T02:49:53;14.11;99.64
75925;DHT22;64604;44.752;37.674;2022-11-20T02:50:55;14.11;99.68
75925;DHT22;64604;44.752;37.674;2022-11-20T02:51:56;14.14;99.80
75925;DHT22;64604;44.752;37.674;2022-11-20T02:52:58;14.15;99.77
75925;DHT22;64604;44.752;37.674;2022-11-20T02:53:59;14.17;99.89
75925;DHT22;64604;44.752;37.674;2022-11-20T02:55:01;14.17;99.79
75925;DHT22;64604;44.752;37.674;2022-11-20T02:56:04;14.18;99.79
75925;DHT22;64604;44.752;37.674;2022-11-20T02:57:06;14.17;99.74
75925;DHT22;64604;44.752;37.674;2022-11-20T02:58:08;14.17;99.73
75925;DHT22;64604;44.752;37.674;2022-11-20T02:59:10;14.19;99.71
75925;DHT22;64604;44.752;37.674;2022-11-20T03:00:12;14.17;99.75
75925;DHT22;64604;44.752;37.674;2022-11-20T03:01:14;14.17;99.64
75925;DHT22;64604;44.752;37.674;2022-11-20T03:02:15;14.15;99.64
75925;DHT22;64604;44.752;37.674;2022-11-20T03:03:17;14.19;99.74
75925;DHT22;64604;44.752;37.674;2022-11-20T03:04:18;14.18;99.60
75925;DHT22;64604;44.752;37.674;2022-11-20T03:05:20;14.17;99.67
75925;DHT22;64604;44.752;37.674;2022-11-20T03:06:21;14.15;99.57
75925;DHT22;64604;44.752;37.674;2022-11-20T03:07:23;14.14;99.67
75925;DHT22;64604;44.752;37.674;2022-11-20T03:08:25;14.12;99.77
75925;DHT22;64604;44.752;37.674;2022-11-20T03:09:27;14.12;99.74
75925;DHT22;64604;44.752;37.674;2022-11-20T03:10:29;14.10;99.75
75925;DHT22;64604;44.752;37.674;2022-11-20T03:11:30;14.09;99.70
75925;DHT22;64604;44.752;37.674;2022-11-20T03:12:32;14.09;99.53
75925;DHT22;64604;44.752;37.674;2022-11-20T03:13:33;14.10;99.47
75925;DHT22;64604;44.752;37.674;2022-11-20T03:14:35;14.10;99.40
75925;DHT22;64604;44.752;37.674;2022-11-20T03:15:37;14.12;99.50
75925;DHT22;64604;44.752;37.674;2022-11-20T03:16:38;14.14;99.58
75925;DHT22;64604;44.752;37.674;2022-11-20T03:17:40;14.15;99.42
75925;DHT22;64604;44.752;37.674;2022-11-20T03:18:42;14.15;99.36
75925;DHT22;64604;44.752;37.674;2022-11-20T03:19:44;14.15;99.29
75925;DHT22;64604;44.752;37.674;2022-11-20T03:20:45;14.18;99.30
75925;DHT22;64604;44.752;37.674;2022-11-20T03:21:47;14.17;99.19
75925;DHT22;64604;44.752;37.674;2022-11-20T03:22:49;14.19;99.06
75925;DHT22;64604;44.752;37.674;2022-11-20T03:23:50;14.19;98.97
75925;DHT22;64604;44.752;37.674;2022-11-20T03:24:52;14.19;99.04
75925;DHT22;64604;44.752;37.674;2022-11-20T03:25:53;14.21;99.09
75925;DHT22;64604;44.752;37.674;2022-11-20T03:26:55;14.23;99.19
75925;DHT22;64604;44.752;37.674;2022-11-20T03:27:56;14.24;99.05
75925;DHT22;64604;44.752;37.674;2022-11-20T03:29:00;14.25;99.19
75925;DHT22;64604;44.752;37.674;2022-11-20T03:30:02;14.25;99.06
75925;DHT22;64604;44.752;37.674;2022-11-20T03:31:12;14.26;99.10
75925;DHT22;64604;44.752;37.674;2022-11-20T03:32:13;14.26;99.22
75925;DHT22;64604;44.752;37.674;2022-11-20T03:33:15;14.25;99.33
75925;DHT22;64604;44.752;37.674;2022-11-20T03:34:16;14.24;99.43
75925;DHT22;64604;44.752;37.674;2022-11-20T03:35:18;14.22;99.76
75925;DHT22;64604;44.752;37.674;2022-11-20T03:36:20;14.22;100.02
75925;DHT22;64604;44.752;37.674;2022-11-20T03:37:22;14.24;100.34
75925;DHT22;64604;44.752;37.674;2022-11-20T03:38:24;14.23;100.42
75925;DHT22;64604;44.752;37.674;2022-11-20T03:39:25;14.26;100.71
75925;DHT22;64604;44.752;37.674;2022-11-20T03:40:27;14.27;100.78
75925;DHT22;64604;44.752;37.674;2022-11-20T03:41:31;14.27;100.88
75925;DHT22;64604;44.752;37.674;2022-11-20T03:42:33;14.29;101.04
75925;DHT22;64604;44.752;37.674;2022-11-20T03:43:58;14.32;101.14
75925;DHT22;64604;44.752;37.674;2022-11-20T03:45:00;14.32;101.15
75925;DHT22;64604;44.752;37.674;2022-11-20T03:46:02;14.35;101.25
75925;DHT22;64604;44.752;37.674;2022-11-20T03:47:03;14.35;101.20
75925;DHT22;64604;44.752;37.674;2022-11-20T03:48:05;14.37;101.29
75925;DHT22;64604;44.752;37.674;2022-11-20T03:49:06;14.37;101.29
75925;DHT22;64604;44.752;37.674;2022-11-20T03:50:10;14.39;101.44
75925;DHT22;64604;44.752;37.674;2022-11-20T03:51:16;14.40;101.44
75925;DHT22;64604;44.752;37.674;2022-11-20T03:52:18;14.40;101.41
75925;DHT22;64604;44.752;37.674;2022-11-20T03:53:20;14.41;101.51
75925;DHT22;64604;44.752;37.674;2022-11-20T03:54:21;14.41;101.56
75925;DHT22;64604;44.752;37.674;2022-11-20T03:55:23;14.43;101.64
75925;DHT22;64604;44.752;37.674;2022-11-20T03:56:30;14.44;101.71
75925;DHT22;64604;44.752;37.674;2022-11-20T03:57:31;14.48;101.77
75925;DHT22;64604;44.752;37.674;2022-11-20T03:58:35;14.47;101.70
75925;DHT22;64604;44.752;37.674;2022-11-20T03:59:45;14.47;101.72
75925;DHT22;64604;44.752;37.674;2022-11-20T04:00:47;14.44;101.76
75925;DHT22;64604;44.752;37.674;2022-11-20T04:01:48;14.47;101.86
75925;DHT22;64604;44.752;37.674;2022-11-20T04:02:50;14.48;101.87
75925;DHT22;64604;44.752;37.674;2022-11-20T04:03:53;14.47;101.81
75925;DHT22;64604;44.752;37.674;2022-11-20T04:04:54;14.47;101.84
75925;DHT22;64604;44.752;37.674;2022-11-20T04:06:02;14.45;101.90
75925;DHT22;64604;44.752;37.674;2022-11-20T04:07:04;14.47;101.96
75925;DHT22;64604;44.752;37.674;2022-11-20T04:08:05;14.49;102.01
75925;DHT22;64604;44.752;37.674;2022-11-20T04:09:07;14.50;102.00
75925;DHT22;64604;44.752;37.674;2022-11-20T04:10:08;14.51;101.89
75925;DHT22;64604;44.752;37.674;2022-11-20T04:11:18;14.54;101.89
75925;DHT22;64604;44.752;37.674;2022-11-20T04:12:20;14.55;101.87
75925;DHT22;64604;44.752;37.674;2022-11-20T04:13:21;14.55;101.73
75925;DHT22;64604;44.752;37.674;2022-11-20T04:14:23;14.56;101.76
75925;DHT22;64604;44.752;37.674;2022-11-20T04:15:25;14.58;101.73
75925;DHT22;64604;44.752;37.674;2022-11-20T04:16:29;14.57;101.66
75925;DHT22;64604;44.752;37.674;2022-11-20T04:17:30;14.59;101.64
75925;DHT22;64604;44.752;37.674;2022-11-20T04:18:32;14.59;101.52
75925;DHT22;64604;44.752;37.674;2022-11-20T04:19:34;14.62;101.51
75925;DHT22;64604;44.752;37.674;2022-11-20T04:20:36;14.63;101.38
75925;DHT22;64604;44.752;37.674;2022-11-20T04:21:38;14.67;101.40
75925;DHT22;64604;44.752;37.674;2022-11-20T04:22:39;14.66;101.28
75925;DHT22;64604;44.752;37.674;2022-11-20T04:23:41;14.67;101.20
75925;DHT22;64604;44.752;37.674;2022-11-20T04:24:42;14.67;100.92
75925;DHT22;64604;44.752;37.674;2022-11-20T04:25:44;14.68;100.86
75925;DHT22;64604;44.752;37.674;2022-11-20T04:26:45;14.69;100.86
75925;DHT22;64604;44.752;37.674;2022-11-20T04:27:47;14.72;100.86
75925;DHT22;64604;44.752;37.674;2022-11-20T04:28:49;14.72;100.81
75925;DHT22;64604;44.752;37.674;2022-11-20T04:29:50;14.73;100.83
75925;DHT22;64604;44.752;37.674;2022-11-20T04:30:52;14.74;100.69
75925;DHT22;64604;44.752;37.674;2022-11-20T04:31:53;14.75;100.67
75925;DHT22;64604;44.752;37.674;2022-11-20T04:32:55;14.75;100.65
75925;DHT22;64604;44.752;37.674;2022-11-20T04:34:04;14.77;100.50
75925;DHT22;64604;44.752;37.674;2022-11-20T04:35:06;14.77;100.48
75925;DHT22;64604;44.752;37.674;2022-11-20T04:36:24;14.79;100.40
75925;DHT22;64604;44.752;37.674;2022-11-20T04:37:27;14.79;100.35
75925;DHT22;64604;44.752;37.674;2022-11-20T04:38:28;14.78;100.24
75925;DHT22;64604;44.752;37.674;2022-11-20T04:39:30;14.80;100.40
75925;DHT22;64604;44.752;37.674;2022-11-20T04:40:32;14.80;100.40
75925;DHT22;64604;44.752;37.674;2022-11-20T04:41:35;14.81;100.44
75925;DHT22;64604;44.752;37.674;2022-11-20T04:42:37;14.82;100.48
75925;DHT22;64604;44.752;37.674;2022-11-20T04:43:38;14.82;100.47
75925;DHT22;64604;44.752;37.674;2022-11-20T04:44:40;14.84;100.51
75925;DHT22;64604;44.752;37.674;2022-11-20T04:45:41;14.83;100.43
75925;DHT22;64604;44.752;37.674;2022-11-20T04:46:43;14.81;100.32
75925;DHT22;64604;44.752;37.674;2022-11-20T04:47:44;14.79;100.43
75925;DHT22;64604;44.752;37.674;2022-11-20T04:48:47;14.81;100.52
75925;DHT22;64604;44.752;37.674;2022-11-20T04:49:48;14.81;100.58
75925;DHT22;64604;44.752;37.674;2022-11-20T04:50:51;14.80;100.57
75925;DHT22;64604;44.752;37.674;2022-11-20T04:51:55;14.79;100.44
75925;DHT22;64604;44.752;37.674;2022-11-20T04:52:56;14.79;100.43
75925;DHT22;64604;44.752;37.674;2022-11-20T04:53:58;14.79;100.39
75925;DHT22;64604;44.752;37.674;2022-11-20T04:55:00;14.80;100.41
75925;DHT22;64604;44.752;37.674;2022-11-20T04:56:09;14.82;100.36
75925;DHT22;64604;44.752;37.674;2022-11-20T04:57:13;14.80;100.37
75925;DHT22;64604;44.752;37.674;2022-11-20T04:58:15;14.80;100.36
75925;DHT22;64604;44.752;37.674;2022-11-20T04:59:17;14.82;100.34
75925;DHT22;64604;44.752;37.674;2022-11-20T05:00:18;14.82;100.32
75925;DHT22;64604;44.752;37.674;2022-11-20T05:01:22;14.84;100.35
75925;DHT22;64604;44.752;37.674;2022-11-20T05:02:24;14.85;100.32
75925;DHT22;64604;44.752;37.674;2022-11-20T05:03:25;14.86;100.32
75925;DHT22;64604;44.752;37.674;2022-11-20T05:04:27;14.87;100.23
75925;DHT22;64604;44.752;37.674;2022-11-20T05:05:29;14.91;100.21
75925;DHT22;64604;44.752;37.674;2022-11-20T05:06:30;14.94;100.18
75925;DHT22;64604;44.752;37.674;2022-11-20T05:07:32;14.93;100.11
75925;DHT22;64604;44.752;37.674;2022-11-20T05:08:34;14.92;100.12
75925;DHT22;64604;44.752;37.674;2022-11-20T05:09:35;14.93;100.11
75925;DHT22;64604;44.752;37.674;2022-11-20T05:10:37;14.92;99.90
75925;DHT22;64604;44.752;37.674;2022-11-20T05:11:38;14.92;99.77
75925;DHT22;64604;44.752;37.674;2022-11-20T05:12:40;14.92;99.74
75925;DHT22;64604;44.752;37.674;2022-11-20T05:13:42;14.93;99.81
75925;DHT22;64604;44.752;37.674;2022-11-20T05:14:44;14.93;99.67
75925;DHT22;64604;44.752;37.674;2022-11-20T05:15:45;14.93;99.54
75925;DHT22;64604;44.752;37.674;2022-11-20T05:16:47;14.94;99.48
75925;DHT22;64604;44.752;37.674;2022-11-20T05:17:52;14.94;99.35
75925;DHT22;64604;44.752;37.674;2022-11-20T05:18:55;14.95;99.29
75925;DHT22;64604;44.752;37.674;2022-11-20T05:19:56;14.93;99.30
75925;DHT22;64604;44.752;37.674;2022-11-20T05:20:58;14.93;99.30
75925;DHT22;64604;44.752;37.674;2022-11-20T05:22:00;14.93;99.19
75925;DHT22;64604;44.752;37.674;2022-11-20T05:23:02;14.94;99.20
75925;DHT22;64604;44.752;37.674;2022-11-20T05:24:04;14.94;99.13
75925;DHT22;64604;44.752;37.674;2022-11-20T05:25:06;14.94;99.00
75925;DHT22;64604;44.752;37.674;2022-11-20T05:26:13;14.94;98.82
75925;DHT22;64604;44.752;37.674;2022-11-20T05:27:15;14.95;98.82
75925;DHT22;64604;44.752;37.674;2022-11-20T05:28:16;14.95;98.70
75925;DHT22;64604;44.752;37.674;2022-11-20T05:29:18;14.96;98.65
75925;DHT22;64604;44.752;37.674;2022-11-20T05:30:19;14.94;98.64
75925;DHT22;64604;44.752;37.674;2022-11-20T05:31:23;14.95;98.52
75925;DHT22;64604;44.752;37.674;2022-11-20T05:32:24;14.95;98.48
75925;DHT22;64604;44.752;37.674;2022-11-20T05:33:26;14.93;97.90
75925;DHT22;64604;44.752;37.674;2022-11-20T05:34:28;14.95;97.89
75925;DHT22;64604;44.752;37.674;2022-11-20T05:35:29;14.98;97.94
75925;DHT22;64604;44.752;37.674;2022-11-20T05:36:31;14.96;97.95
75925;DHT22;64604;44.752;37.674;2022-11-20T05:37:33;14.96;97.66
75925;DHT22;64604;44.752;37.674;2022-11-20T05:38:34;14.95;96.94
75925;DHT22;64604;44.752;37.674;2022-11-20T05:39:36;14.95;97.14
75925;DHT22;64604;44.752;37.674;2022-11-20T05:40:38;14.95;97.20
75925;DHT22;64604;44.752;37.674;2022-11-20T05:41:39;14.94;97.48
75925;DHT22;64604;44.752;37.674;2022-11-20T05:42:41;14.95;97.44
75925;DHT22;64604;44.752;37.674;2022-11-20T05:43:46;14.94;97.58
75925;DHT22;64604;44.752;37.674;2022-11-20T05:44:48;14.93;97.69
75925;DHT22;64604;44.752;37.674;2022-11-20T05:45:53;14.93;97.68
75925;DHT22;64604;44.752;37.674;2022-11-20T05:46:55;14.93;97.86
75925;DHT22;64604;44.752;37.674;2022-11-20T05:48:00;14.95;97.87
75925;DHT22;64604;44.752;37.674;2022-11-20T05:49:01;14.97;97.81
75925;DHT22;64604;44.752;37.674;2022-11-20T05:50:03;15.00;97.87
75925;DHT22;64604;44.752;37.674;2022-11-20T05:51:07;15.01;98.03
75925;DHT22;64604;44.752;37.674;2022-11-20T05:52:09;15.01;98.15
75925;DHT22;64604;44.752;37.674;2022-11-20T05:53:10;15.01;98.32
75925;DHT22;64604;44.752;37.674;2022-11-20T05:54:12;15.01;98.49
75925;DHT22;64604;44.752;37.674;2022-11-20T05:55:14;15.04;98.62
75925;DHT22;64604;44.752;37.674;2022-11-20T05:56:18;15.06;98.68
75925;DHT22;64604;44.752;37.674;2022-11-20T05:57:20;15.09;98.60
75925;DHT22;64604;44.752;37.674;2022-11-20T05:58:21;15.11;98.59
75925;DHT22;64604;44.752;37.674;2022-11-20T05:59:23;15.13;98.49
75925;DHT22;64604;44.752;37.674;2022-11-20T06:00:24;15.14;98.39
75925;DHT22;64604;44.752;37.674;2022-11-20T06:01:26;15.16;98.34
75925;DHT22;64604;44.752;37.674;2022-11-20T06:02:28;15.21;98.28
75925;DHT22;64604;44.752;37.674;2022-11-20T06:03:29;15.24;98.25
75925;DHT22;64604;44.752;37.674;2022-11-20T06:04:31;15.24;98.09
75925;DHT22;64604;44.752;37.674;2022-11-20T06:05:33;15.26;98.22
75925;DHT22;64604;44.752;37.674;2022-11-20T06:06:35;15.27;97.97
75925;DHT22;64604;44.752;37.674;2022-11-20T06:07:36;15.27;97.98
75925;DHT22;64604;44.752;37.674;2022-11-20T06:08:38;15.26;97.98
75925;DHT22;64604;44.752;37.674;2022-11-20T06:09:39;15.25;97.94
75925;DHT22;64604;44.752;37.674;2022-11-20T06:10:41;15.25;97.89
75925;DHT22;64604;44.752;37.674;2022-11-20T06:11:43;15.25;97.78
75925;DHT22;64604;44.752;37.674;2022-11-20T06:12:44;15.24;97.81
75925;DHT22;64604;44.752;37.674;2022-11-20T06:13:47;15.22;97.45
75925;DHT22;64604;44.752;37.674;2022-11-20T06:14:48;15.19;97.33
75925;DHT22;64604;44.752;37.674;2022-11-20T06:15:51;15.16;96.87
75925;DHT22;64604;44.752;37.674;2022-11-20T06:16:52;15.12;97.03
75925;DHT22;64604;44.752;37.674;2022-11-20T06:17:54;15.10;95.90
75925;DHT22;64604;44.752;37.674;2022-11-20T06:18:56;15.10;95.62
75925;DHT22;64604;44.752;37.674;2022-11-20T06:19:58;15.10;95.56
75925;DHT22;64604;44.752;37.674;2022-11-20T06:21:05;15.09;94.49
75925;DHT22;64604;44.752;37.674;2022-11-20T06:22:07;15.11;94.29
75925;DHT22;64604;44.752;37.674;2022-11-20T06:23:08;15.15;94.65
75925;DHT22;64604;44.752;37.674;2022-11-20T06:24:10;15.15;93.69
75925;DHT22;64604;44.752;37.674;2022-11-20T06:25:12;15.17;94.09
75925;DHT22;64604;44.752;37.674;2022-11-20T06:26:17;15.17;94.97
75925;DHT22;64604;44.752;37.674;2022-11-20T06:27:19;15.19;95.14
75925;DHT22;64604;44.752;37.674;2022-11-20T06:28:20;15.21;95.30
75925;DHT22;64604;44.752;37.674;2022-11-20T06:29:23;15.21;95.62
75925;DHT22;64604;44.752;37.674;2022-11-20T06:30:24;15.23;95.59
75925;DHT22;64604;44.752;37.674;2022-11-20T06:31:26;15.23;95.71
75925;DHT22;64604;44.752;37.674;2022-11-20T06:32:28;15.24;95.95
75925;DHT22;64604;44.752;37.674;2022-11-20T06:33:29;15.21;96.16
75925;DHT22;64604;44.752;37.674;2022-11-20T06:34:31;15.24;96.15